Time;durP1;ratioP1;P1;durP2;ratioP2;P2;SDS_P1;SDS_P2;PMS_P1;PMS_P2;Temp;Humidity;BMP_temperature;BMP_pressure;BME280_temperature;BME280_humidity;BME280_pressure;Samples;Min_cycle;Max_cycle;Signal;HPM_P1;HPM_P2
2021/07/14 00:03:43;;;;;;;;;32.50;30.25;;;;;17.16;94.06;100677.16;5080684;28;46193;-88
2021/07/14 00:06:09;;;;;;;;;40.50;32.25;;;;;16.92;93.81;100638.00;5060571;28;45606;-86
2021/07/14 00:08:34;;;;;;;;;36.50;32.75;;;;;16.74;93.84;100618.59;5078583;28;45744;-86
2021/07/14 00:11:00;;;;;;;;;40.00;30.75;;;;;17.12;94.19;100683.69;5077731;28;46512;-84
2021/07/14 00:13:31;;;;;;;;;28.75;27.50;;;;;16.85;94.18;100636.09;5078520;28;45711;-81
2021/07/14 00:22:08;;;;;;;;;29.00;27.75;;;;;17.03;94.19;100660.78;5076875;28;46006;-83
2021/07/14 00:24:35;;;;;;;;;37.50;30.75;;;;;17.09;94.46;100682.19;5059195;28;46229;-85
2021/07/14 00:27:04;;;;;;;;;31.25;29.50;;;;;17.08;94.33;100663.81;5058968;28;45848;-83
2021/07/14 00:29:30;;;;;;;;;32.50;30.50;;;;;16.87;93.76;100636.78;5077328;28;45636;-82
2021/07/14 00:31:55;;;;;;;;;32.00;30.75;;;;;17.09;93.75;100674.25;5077335;28;46349;-84
2021/07/14 00:34:20;;;;;;;;;33.00;28.50;;;;;17.04;94.32;100665.94;5076504;28;45777;-83
2021/07/14 00:36:46;;;;;;;;;29.75;27.50;;;;;17.03;94.31;100669.56;5058639;28;45701;-81
2021/07/14 00:39:14;;;;;;;;;32.25;28.75;;;;;17.07;93.84;100678.00;5078141;28;45550;-83
2021/07/14 00:41:40;;;;;;;;;35.75;29.00;;;;;16.90;94.16;100652.34;5078361;28;45914;-81
2021/07/14 00:44:05;;;;;;;;;29.00;25.25;;;;;16.98;94.01;100693.00;5078895;28;46489;-85
2021/07/14 00:46:31;;;;;;;;;29.75;28.75;;;;;16.84;93.90;100648.50;5078670;28;45548;-82
2021/07/14 00:48:59;;;;;;;;;27.00;23.75;;;;;17.02;94.34;100672.34;5078844;28;45427;-81
2021/07/14 00:51:26;;;;;;;;;31.50;29.25;;;;;16.96;94.26;100663.19;5082175;28;45531;-82
2021/07/14 00:53:52;;;;;;;;;32.50;30.75;;;;;16.83;94.08;100646.84;5081178;28;46462;-81
2021/07/14 00:56:19;;;;;;;;;27.50;25.50;;;;;16.77;94.20;100632.38;5061199;28;45651;-81
2021/07/14 00:58:45;;;;;;;;;30.00;26.50;;;;;17.00;94.35;100683.09;5077336;28;45674;-82
2021/07/14 01:04:37;;;;;;;;;26.75;24.75;;;;;16.94;94.22;100681.03;5077840;28;46171;-82
2021/07/14 01:07:06;;;;;;;;;31.00;28.25;;;;;16.99;94.41;100677.94;5077926;28;45510;-83
2021/07/14 01:09:56;;;;;;;;;27.50;25.25;;;;;16.98;94.01;100681.56;5078635;28;45716;-83
2021/07/14 01:12:36;;;;;;;;;26.75;25.00;;;;;16.98;94.26;100685.06;5080209;28;45618;-83
2021/07/14 01:15:08;;;;;;;;;23.00;22.25;;;;;16.84;94.15;100672.31;5063258;28;47446;-83
2021/07/14 01:17:39;;;;;;;;;27.25;24.75;;;;;16.98;94.60;100686.88;5079564;28;45565;-84
2021/07/14 01:20:10;;;;;;;;;25.25;22.75;;;;;16.99;94.30;100693.81;5079771;28;45662;-83
2021/07/14 01:22:49;;;;;;;;;27.25;27.25;;;;;16.98;94.31;100690.34;5080681;28;45831;-81
2021/07/14 01:25:49;;;;;;;;;23.50;22.50;;;;;17.00;94.38;100687.56;5081342;28;46086;-81
2021/07/14 01:28:16;;;;;;;;;27.50;22.25;;;;;16.93;94.36;100671.44;5083183;28;45798;-82
2021/07/14 01:30:43;;;;;;;;;25.00;21.25;;;;;17.00;94.39;100676.97;5062307;28;45875;-81
2021/07/14 01:33:11;;;;;;;;;16.25;16.00;;;;;16.98;94.11;100681.56;5062086;28;48354;-81
2021/07/14 01:35:41;;;;;;;;;21.75;20.75;;;;;16.97;94.15;100679.91;5080761;28;45387;-82
2021/07/14 01:38:10;;;;;;;;;23.00;20.25;;;;;16.89;94.13;100666.59;5079952;28;45748;-82
2021/07/14 01:40:37;;;;;;;;;19.50;18.25;;;;;16.93;94.06;100671.44;5076795;28;45580;-81
2021/07/14 01:43:04;;;;;;;;;20.75;20.25;;;;;16.89;94.04;100658.66;5059438;28;46447;-82
2021/07/14 01:45:35;;;;;;;;;20.75;20.00;;;;;17.02;94.37;100678.47;5075791;28;46259;-83
2021/07/14 01:48:01;;;;;;;;;21.25;20.50;;;;;16.90;94.01;100669.06;5078746;28;45499;-82
2021/07/14 01:50:32;;;;;;;;;14.25;13.25;;;;;17.01;94.39;100689.19;5076005;28;45780;-84
2021/07/14 01:52:58;;;;;;;;;18.25;17.75;;;;;16.99;94.55;100683.25;5057308;28;48604;-83
2021/07/14 01:55:26;;;;;;;;;21.25;19.25;;;;;17.00;94.50;100682.25;5075264;28;46078;-79
2021/07/14 01:57:54;;;;;;;;;19.00;17.50;;;;;16.97;94.20;100678.09;5076105;28;45858;-81
2021/07/14 02:00:20;;;;;;;;;18.50;18.50;;;;;16.77;94.29;100648.25;5075338;28;45450;-83
2021/07/14 02:05:38;;;;;;;;;16.75;15.50;;;;;16.95;94.11;100673.94;5075904;28;45777;-83
2021/07/14 02:08:04;;;;;;;;;12.25;11.75;;;;;16.90;94.69;100670.88;5077542;28;45693;-83
2021/07/14 02:10:32;;;;;;;;;16.25;14.00;;;;;16.84;94.28;100653.81;5056760;28;46046;-82
2021/07/14 02:12:59;;;;;;;;;13.00;12.25;;;;;16.70;94.15;100641.03;5076393;28;45576;-83
2021/07/14 02:15:27;;;;;;;;;16.25;14.00;;;;;16.81;94.02;100662.03;5077220;28;45706;-82
2021/07/14 02:18:07;;;;;;;;;18.00;16.25;;;;;16.89;94.54;100670.06;5075770;28;45511;-84
2021/07/14 02:20:33;;;;;;;;;14.25;14.00;;;;;16.83;94.48;100661.88;5075332;28;45582;-83
2021/07/14 02:22:58;;;;;;;;;12.50;10.75;;;;;16.79;94.11;100650.72;5056241;28;47253;-84
2021/07/14 02:25:24;;;;;;;;;14.25;14.00;;;;;16.67;94.52;100631.59;5074914;28;45838;-82
2021/07/14 02:27:49;;;;;;;;;13.25;11.50;;;;;16.66;94.06;100645.81;5075619;28;45536;-82
2021/07/14 02:30:20;;;;;;;;;12.00;11.50;;;;;16.73;94.46;100646.06;5056628;28;45559;-82
2021/07/14 02:32:58;;;;;;;;;13.50;12.50;;;;;16.70;94.05;100663.06;5075792;28;45515;-83
2021/07/14 02:35:28;;;;;;;;;14.75;13.25;;;;;16.59;94.26;100635.94;5074924;28;45924;-81
2021/07/14 02:37:58;;;;;;;;;12.25;11.25;;;;;16.80;94.42;100657.69;5075621;28;45744;-82
2021/07/14 02:40:30;;;;;;;;;13.50;13.00;;;;;16.73;94.10;100656.66;5075006;28;45613;-83
2021/07/14 02:42:59;;;;;;;;;10.75;10.00;;;;;16.70;94.35;100651.63;5074801;28;45583;-82
2021/07/14 02:45:27;;;;;;;;;15.25;14.00;;;;;16.79;94.27;100664.81;5056117;28;46335;-82
2021/07/14 02:47:53;;;;;;;;;13.25;13.00;;;;;16.78;94.29;100664.97;5074927;28;45485;-83
2021/07/14 02:50:25;;;;;;;;;13.00;12.75;;;;;16.76;94.65;100658.97;5075235;28;45593;-81
2021/07/14 02:53:00;;;;;;;;;14.00;13.00;;;;;16.79;94.36;100674.56;5075738;28;46544;-83
2021/07/14 02:55:30;;;;;;;;;12.00;11.00;;;;;16.67;94.17;100651.94;5074542;28;46001;-81
2021/07/14 02:57:57;;;;;;;;;12.50;12.50;;;;;16.80;94.33;100681.50;5078103;28;45805;-81
2021/07/14 03:00:24;;;;;;;;;10.25;9.75;;;;;16.60;94.55;100649.03;5078445;28;45612;-79
2021/07/14 03:02:51;;;;;;;;;12.00;11.00;;;;;16.81;94.51;100679.72;5058993;28;47412;-81
2021/07/14 03:05:18;;;;;;;;;11.50;11.00;;;;;16.73;94.26;100675.97;5075454;28;46530;-81
2021/07/14 03:07:45;;;;;;;;;13.25;12.25;;;;;16.74;94.53;100672.34;5075015;28;45509;-82
2021/07/14 03:10:16;;;;;;;;;9.00;9.00;;;;;16.79;94.24;100672.75;5075332;28;45624;-82
2021/07/14 03:12:41;;;;;;;;;11.50;10.25;;;;;16.57;94.39;100648.47;5075524;28;45732;-81
2021/07/14 03:15:09;;;;;;;;;10.50;10.00;;;;;16.51;94.38;100631.38;5056454;28;48494;-82
2021/07/14 03:20:59;;;;;;;;;12.00;9.75;;;;;16.76;94.60;100678.34;5077507;28;45556;-82
2021/07/14 03:23:24;;;;;;;;;11.00;10.50;;;;;16.71;94.45;100669.19;5077663;28;45860;-82
2021/07/14 03:25:51;;;;;;;;;11.00;11.00;;;;;16.78;94.52;100675.56;5077570;28;45576;-82
2021/07/14 03:28:18;;;;;;;;;10.00;9.75;;;;;16.78;94.04;100670.25;5079246;28;45607;-83
2021/07/14 03:30:45;;;;;;;;;11.75;11.75;;;;;16.52;94.32;100635.66;5078907;28;45522;-82
2021/07/14 03:33:15;;;;;;;;;12.00;10.50;;;;;16.66;94.29;100663.50;5078514;28;45603;-83
2021/07/14 03:35:41;;;;;;;;;10.25;9.75;;;;;16.66;93.80;100669.63;5080744;28;45929;-82
2021/07/14 03:38:10;;;;;;;;;11.00;10.00;;;;;16.63;94.31;100661.13;5078127;28;45800;-82
2021/07/14 03:40:38;;;;;;;;;10.00;9.00;;;;;16.66;93.83;100672.25;5077792;28;45709;-81
2021/07/14 03:43:05;;;;;;;;;9.50;9.00;;;;;16.81;93.85;100693.78;5077446;28;45897;-82
2021/07/14 03:45:32;;;;;;;;;11.50;9.75;;;;;16.78;94.26;100694.91;5080961;28;46335;-82
2021/07/14 03:47:59;;;;;;;;;9.00;9.00;;;;;16.82;94.00;100707.84;5082691;28;45651;-81
2021/07/14 03:50:26;;;;;;;;;9.50;8.75;;;;;16.82;94.11;100702.53;5086322;28;45599;-80
2021/07/14 03:52:52;;;;;;;;;9.25;9.00;;;;;16.82;94.29;100699.91;5085930;28;45507;-81
2021/07/14 03:55:19;;;;;;;;;10.00;9.00;;;;;16.57;94.04;100659.88;5068023;28;46298;-80
2021/07/14 03:57:45;;;;;;;;;13.00;10.00;;;;;16.83;93.94;100720.94;5083378;28;45576;-81
2021/07/14 04:00:12;;;;;;;;;9.25;9.25;;;;;16.75;94.07;100707.59;5077906;28;45744;-83
2021/07/14 04:06:02;;;;;;;;;17.75;14.00;;;;;16.84;94.02;100713.84;5077117;28;45785;-83
2021/07/14 04:08:42;;;;;;;;;16.75;16.75;;;;;16.84;94.09;100716.47;5077511;28;45612;-83
2021/07/14 04:11:07;;;;;;;;;23.75;19.25;;;;;16.62;94.27;100681.47;5078879;28;45516;-82
2021/07/14 04:13:33;;;;;;;;;22.50;19.50;;;;;16.73;93.84;100699.78;5077755;28;45567;-82
2021/07/14 04:15:59;;;;;;;;;20.75;17.00;;;;;16.73;93.89;100693.69;5076812;28;46189;-81
2021/07/14 04:18:24;;;;;;;;;18.50;17.75;;;;;16.85;94.13;100724.25;5076873;28;45498;-81
2021/07/14 04:20:49;;;;;;;;;20.00;18.75;;;;;16.85;94.02;100710.19;5060565;28;46024;-81
2021/07/14 04:23:15;;;;;;;;;23.50;21.00;;;;;16.81;94.35;100708.81;5061502;28;46860;-81
2021/07/14 04:25:40;;;;;;;;;26.50;22.75;;;;;16.79;94.01;100712.44;5078984;28;45597;-83
2021/07/14 04:28:06;;;;;;;;;25.75;21.25;;;;;16.85;94.01;100716.31;5059292;28;45810;-82
2021/07/14 04:30:32;;;;;;;;;20.75;20.00;;;;;16.84;93.86;100705.91;5076971;28;45522;-81
2021/07/14 04:37:00;;;;;;;;;14.00;12.50;;;;;16.88;93.93;100709.91;5072800;28;45884;-82
2021/07/14 04:39:25;;;;;;;;;12.75;12.25;;;;;16.76;93.93;100691.56;5076704;28;45594;-83
2021/07/14 04:41:51;;;;;;;;;16.00;14.00;;;;;16.73;94.16;100686.56;5079723;28;45545;-83
2021/07/14 04:44:37;;;;;;;;;15.25;14.00;;;;;16.88;94.30;100710.75;5080101;28;46948;-82
2021/07/14 04:47:03;;;;;;;;;17.00;15.25;;;;;16.90;94.16;100708.75;5080350;28;45698;-82
2021/07/14 04:49:29;;;;;;;;;16.75;14.50;;;;;16.83;94.35;100701.56;5081071;28;45254;-82
2021/07/14 04:51:54;;;;;;;;;14.00;13.00;;;;;16.92;93.63;100712.09;5080900;28;45746;-82
2021/07/14 04:54:20;;;;;;;;;13.25;12.25;;;;;16.91;94.10;100706.94;5085853;28;45526;-81
2021/07/14 04:56:49;;;;;;;;;16.00;14.00;;;;;16.91;94.01;100712.25;5088909;28;45506;-83
2021/07/14 04:59:15;;;;;;;;;18.50;14.50;;;;;16.95;93.84;100732.97;5088398;28;45545;-82
2021/07/14 05:01:40;;;;;;;;;11.00;11.00;;;;;16.97;94.12;100725.72;5084376;28;45518;-83
2021/07/14 05:04:06;;;;;;;;;14.00;13.00;;;;;16.86;93.75;100717.97;5067667;28;47541;-82
2021/07/14 05:06:31;;;;;;;;;12.00;11.00;;;;;16.91;94.22;100728.97;5083776;28;46444;-83
2021/07/14 05:08:58;;;;;;;;;13.00;12.50;;;;;16.93;94.08;100734.94;5082262;28;45677;-83
2021/07/14 05:11:23;;;;;;;;;14.50;11.75;;;;;16.92;93.90;100741.22;5083924;28;45604;-81
2021/07/14 05:13:48;;;;;;;;;14.25;13.75;;;;;16.92;93.89;100737.72;5084433;28;45524;-81
2021/07/14 05:16:14;;;;;;;;;14.25;14.00;;;;;16.91;93.91;100738.72;5085677;28;45716;-83
2021/07/14 05:22:01;;;;;;;;;15.00;13.00;;;;;16.98;94.00;100745.94;5081708;28;45621;-81
2021/07/14 05:24:26;;;;;;;;;16.00;13.50;;;;;16.98;94.21;100745.09;5078520;28;45735;-83
2021/07/14 05:26:51;;;;;;;;;12.75;11.75;;;;;16.98;94.05;100753.03;5076170;28;46396;-82
2021/07/14 05:29:17;;;;;;;;;13.50;13.00;;;;;16.96;93.84;100757.63;5076205;28;45533;-82
2021/07/14 05:31:42;;;;;;;;;14.25;14.00;;;;;16.96;94.18;100769.06;5076586;28;45571;-81
2021/07/14 05:34:08;;;;;;;;;16.50;15.25;;;;;16.88;93.98;100745.16;5077398;28;45622;-83
2021/07/14 05:36:33;;;;;;;;;15.00;14.00;;;;;16.95;94.03;100756.78;5074889;28;45674;-82
2021/07/14 05:38:59;;;;;;;;;16.00;14.25;;;;;16.82;93.69;100729.00;5073543;28;46056;-81
2021/07/14 05:41:25;;;;;;;;;14.75;14.00;;;;;16.88;93.75;100731.91;5056696;28;45947;-83
2021/07/14 05:43:51;;;;;;;;;14.50;13.25;;;;;16.74;94.18;100717.34;5075394;28;46320;-83
2021/07/14 05:46:16;;;;;;;;;14.00;14.00;;;;;16.93;93.89;100752.66;5075490;28;46034;-82
2021/07/14 05:52:04;;;;;;;;;12.00;11.75;;;;;16.87;94.15;100743.47;5075858;28;45727;-82
2021/07/14 05:54:29;;;;;;;;;11.25;11.00;;;;;16.91;93.95;100747.47;5075170;28;45880;-82
2021/07/14 05:56:55;;;;;;;;;10.50;10.50;;;;;16.95;94.11;100754.16;5074931;28;45689;-82
2021/07/14 05:59:20;;;;;;;;;14.50;13.00;;;;;16.99;93.84;100763.47;5075391;28;45588;-82
2021/07/14 06:01:45;;;;;;;;;14.00;12.00;;;;;17.01;93.93;100773.91;5075624;28;45612;-82
2021/07/14 06:07:32;;;;;;;;;9.75;9.75;;;;;17.01;93.87;100764.16;5075910;28;46143;-82
2021/07/14 06:09:58;;;;;;;;;11.00;10.25;;;;;16.96;94.02;100762.94;5075680;28;45604;-82
2021/07/14 06:12:23;;;;;;;;;12.25;11.25;;;;;16.92;93.72;100753.63;5083230;28;45573;-82
2021/07/14 06:14:50;;;;;;;;;12.00;11.50;;;;;16.95;93.75;100756.78;5083812;28;46928;-80
2021/07/14 06:17:16;;;;;;;;;11.75;10.25;;;;;17.04;94.22;100770.97;5081758;28;46388;-82
2021/07/14 06:19:41;;;;;;;;;14.25;11.00;;;;;16.97;93.79;100768.09;5083590;28;45778;-83
2021/07/14 06:22:07;;;;;;;;;11.25;11.00;;;;;17.01;93.84;100776.56;5083643;28;45685;-82
2021/07/14 06:24:32;;;;;;;;;11.00;11.00;;;;;16.94;93.93;100765.75;5078559;28;46319;-80
2021/07/14 06:26:58;;;;;;;;;10.75;10.00;;;;;17.00;94.11;100769.63;5076155;28;45611;-81
2021/07/14 06:29:23;;;;;;;;;15.50;14.00;;;;;16.91;93.92;100750.13;5075197;28;46148;-82
2021/07/14 06:31:50;;;;;;;;;12.75;11.50;;;;;16.94;93.87;100756.97;5056724;28;45556;-82
2021/07/14 06:37:38;;;;;;;;;10.75;10.00;;;;;17.06;93.87;100780.44;5063485;28;46105;-81
2021/07/14 06:40:05;;;;;;;;;12.00;11.25;;;;;16.81;94.11;100732.63;5074952;28;45500;-81
2021/07/14 06:42:31;;;;;;;;;12.25;11.50;;;;;16.74;93.65;100721.78;5075536;28;45521;-81
2021/07/14 06:44:56;;;;;;;;;11.75;11.00;;;;;17.08;94.13;100782.94;5075052;28;45567;-82
2021/07/14 06:47:22;;;;;;;;;11.75;10.75;;;;;17.06;93.81;100776.94;5076025;28;46352;-82
2021/07/14 06:49:48;;;;;;;;;10.00;10.00;;;;;17.10;94.19;100799.53;5057288;28;45725;-82
2021/07/14 06:52:13;;;;;;;;;8.50;6.25;;;;;17.11;94.11;100793.25;5079300;28;45636;-82
2021/07/14 06:54:39;;;;;;;;;12.75;11.75;;;;;17.01;94.02;100765.97;5079535;28;45649;-82
2021/07/14 06:57:08;;;;;;;;;11.50;10.00;;;;;16.98;94.01;100758.31;5078577;28;45911;-82
2021/07/14 06:59:34;;;;;;;;;10.25;9.75;;;;;17.14;93.98;100798.25;5077739;28;45596;-82
2021/07/14 07:02:02;;;;;;;;;9.50;9.50;;;;;17.14;93.90;100795.59;5077748;28;45609;-82
2021/07/14 07:07:49;;;;;;;;;9.25;9.00;;;;;17.16;93.81;100794.47;5077216;28;45961;-81
2021/07/14 07:10:14;;;;;;;;;10.00;9.25;;;;;17.08;94.12;100777.66;5077333;28;45965;-80
2021/07/14 07:12:40;;;;;;;;;11.00;10.75;;;;;17.08;94.07;100769.69;5078689;28;45657;-79
2021/07/14 07:15:05;;;;;;;;;10.00;9.50;;;;;17.21;94.02;100788.75;5080447;28;46541;-80
2021/07/14 07:17:31;;;;;;;;;9.75;8.75;;;;;17.19;93.67;100786.22;5080785;28;46155;-82
2021/07/14 07:23:21;;;;;;;;;9.75;9.75;;;;;17.22;93.65;100786.94;5077470;28;45551;-81
2021/07/14 07:25:52;;;;;;;;;8.50;8.50;;;;;17.25;94.12;100800.69;5077278;28;45644;-83
2021/07/14 07:28:20;;;;;;;;;12.75;11.00;;;;;17.29;93.70;100796.75;5077118;28;47322;-82
2021/07/14 07:30:54;;;;;;;;;9.75;9.00;;;;;17.16;93.72;100783.88;5077482;28;45821;-85
2021/07/14 07:33:20;;;;;;;;;8.50;8.00;;;;;17.29;93.73;100806.53;5077772;28;45459;-83
2021/07/14 07:35:45;;;;;;;;;8.50;8.00;;;;;17.08;93.86;100773.19;5077047;28;45599;-83
2021/07/14 07:38:11;;;;;;;;;8.75;8.75;;;;;17.28;93.97;100804.84;5077297;28;45620;-79
2021/07/14 07:40:36;;;;;;;;;9.75;8.25;;;;;16.98;93.59;100768.91;5077798;28;45692;-83
2021/07/14 07:43:02;;;;;;;;;8.00;8.00;;;;;17.07;93.93;100776.81;5077495;28;45754;-79
2021/07/14 07:45:27;;;;;;;;;9.00;8.00;;;;;17.08;93.71;100775.00;5077303;28;46278;-79
2021/07/14 07:47:53;;;;;;;;;7.50;7.50;;;;;17.28;93.84;100816.28;5076908;28;45487;-79
2021/07/14 07:50:18;;;;;;;;;8.25;8.00;;;;;17.13;94.23;100778.03;5077153;28;45572;-78
2021/07/14 07:52:44;;;;;;;;;7.00;7.00;;;;;17.12;93.55;100793.09;5076995;28;45914;-80
2021/07/14 07:55:14;;;;;;;;;7.75;7.50;;;;;17.16;94.07;100786.53;5076665;28;46228;-79
2021/07/14 07:57:40;;;;;;;;;10.50;10.00;;;;;17.17;94.00;100784.69;5076739;28;45625;-79
2021/07/14 08:00:15;;;;;;;;;9.75;9.00;;;;;17.30;93.83;100818.78;5077105;28;45639;-78
2021/07/14 08:02:40;;;;;;;;;9.50;9.25;;;;;17.32;93.88;100822.97;5075569;28;45858;-78
2021/07/14 08:08:28;;;;;;;;;9.75;9.00;;;;;17.37;93.95;100815.41;5076394;28;45966;-79
2021/07/14 08:10:56;;;;;;;;;9.00;7.00;;;;;17.42;93.93;100839.66;5058568;28;45551;-81
2021/07/14 08:13:22;;;;;;;;;8.75;8.25;;;;;17.44;93.80;100821.78;5058372;28;45851;-79
2021/07/14 08:15:47;;;;;;;;;7.75;7.00;;;;;17.24;93.45;100780.50;5076182;28;47406;-79
2021/07/14 08:18:13;;;;;;;;;8.50;7.50;;;;;17.49;94.14;100811.56;5076187;28;46161;-80
2021/07/14 08:20:38;;;;;;;;;7.25;6.75;;;;;17.56;93.69;100817.94;5076942;28;45585;-78
2021/07/14 08:23:03;;;;;;;;;7.75;6.75;;;;;17.57;93.23;100816.13;5077108;28;45648;-79
2021/07/14 08:25:29;;;;;;;;;9.25;6.75;;;;;17.53;93.58;100805.00;5076808;28;45634;-79
2021/07/14 08:27:54;;;;;;;;;8.75;7.00;;;;;17.68;93.79;100829.22;5076659;28;45875;-80
2021/07/14 08:30:20;;;;;;;;;9.75;7.50;;;;;17.61;93.30;100815.72;5076568;28;45583;-80
2021/07/14 08:32:46;;;;;;;;;7.25;7.25;;;;;17.71;93.46;100836.84;5076595;28;45693;-79
2021/07/14 08:38:33;;;;;;;;;7.50;7.00;;;;;17.76;93.23;100829.28;5066838;28;46114;-79
2021/07/14 08:41:00;;;;;;;;;6.50;6.50;;;;;17.71;93.71;100841.31;5081869;28;45603;-80
2021/07/14 08:43:31;;;;;;;;;7.00;7.00;;;;;17.76;93.97;100836.41;5081026;28;45621;-77
2021/07/14 08:45:58;;;;;;;;;6.25;6.25;;;;;17.76;93.39;100841.72;5079709;28;46474;-79
2021/07/14 08:48:25;;;;;;;;;8.50;7.75;;;;;17.75;93.73;100848.00;5079616;28;45714;-79
2021/07/14 08:50:59;;;;;;;;;8.00;8.00;;;;;17.77;93.70;100846.84;5082134;28;45668;-79
2021/07/14 08:53:27;;;;;;;;;7.75;7.00;;;;;17.78;93.36;100837.91;5080696;28;45526;-79
2021/07/14 08:55:53;;;;;;;;;8.25;7.25;;;;;17.81;93.91;100852.72;5057774;28;47699;-78
2021/07/14 08:58:22;;;;;;;;;8.00;8.00;;;;;17.83;93.29;100840.13;5075878;28;45957;-77
2021/07/14 09:00:51;;;;;;;;;10.00;10.00;;;;;17.79;93.15;100836.09;5075521;28;45752;-77
2021/07/14 09:03:17;;;;;;;;;8.75;8.75;;;;;17.83;93.78;100848.91;5075873;28;45459;-76
2021/07/14 09:09:05;;;;;;;;;8.00;7.75;;;;;17.84;93.40;100855.88;5075275;28;45774;-75
2021/07/14 09:11:47;;;;;;;;;5.50;5.00;;;;;17.86;93.68;100858.38;5075078;28;45741;-75
2021/07/14 09:14:29;;;;;;;;;7.00;6.00;;;;;17.86;93.63;100853.94;5075513;28;45670;-77
2021/07/14 09:16:56;;;;;;;;;6.00;6.00;;;;;17.80;93.86;100854.53;5056812;28;46476;-77
2021/07/14 09:19:24;;;;;;;;;6.50;6.50;;;;;17.83;93.78;100869.28;5075006;28;45994;-75
2021/07/14 09:21:51;;;;;;;;;5.75;5.75;;;;;17.78;93.37;100845.88;5075542;28;45589;-76
2021/07/14 09:24:22;;;;;;;;;7.00;6.00;;;;;17.81;93.37;100844.75;5075473;28;45630;-76
2021/07/14 09:26:48;;;;;;;;;5.25;5.00;;;;;17.81;93.75;100856.19;5074318;28;46526;-76
2021/07/14 09:29:13;;;;;;;;;6.75;6.75;;;;;17.83;93.46;100851.56;5075087;28;46197;-77
2021/07/14 09:31:44;;;;;;;;;6.00;5.25;;;;;17.85;93.38;100860.19;5075072;28;45683;-77
2021/07/14 09:34:31;;;;;;;;;4.00;4.00;;;;;17.85;93.81;100843.47;5075223;28;45646;-77
2021/07/14 09:37:03;;;;;;;;;4.75;4.25;;;;;17.81;93.45;100840.28;5074626;28;45694;-77
2021/07/14 09:39:33;;;;;;;;;6.50;6.00;;;;;17.90;93.04;100854.44;5074756;28;46048;-77
2021/07/14 09:42:09;;;;;;;;;5.25;5.25;;;;;17.94;93.21;100858.47;5056706;28;45718;-75
2021/07/14 09:44:45;;;;;;;;;6.25;6.25;;;;;17.98;93.03;100850.06;5075316;28;45716;-77
2021/07/14 09:47:18;;;;;;;;;6.00;6.00;;;;;18.02;92.99;100858.56;5074479;28;47975;-76
2021/07/14 09:49:45;;;;;;;;;6.75;6.00;;;;;18.02;93.09;100859.41;5075072;28;45978;-77
2021/07/14 09:52:14;;;;;;;;;5.00;5.00;;;;;18.08;93.10;100860.59;5075212;28;45643;-77
2021/07/14 09:54:41;;;;;;;;;5.00;4.25;;;;;18.11;93.62;100862.94;5075086;28;45719;-77
2021/07/14 09:57:11;;;;;;;;;5.75;5.00;;;;;18.14;92.96;100867.94;5074669;28;47403;-77
2021/07/14 09:59:36;;;;;;;;;4.75;4.50;;;;;18.11;92.86;100856.81;5056341;28;47311;-77
2021/07/14 10:02:02;;;;;;;;;7.00;7.00;;;;;18.19;93.30;100873.63;5075086;28;45628;-77
2021/07/14 10:04:34;;;;;;;;;4.25;4.25;;;;;18.17;93.44;100866.81;5075058;28;45505;-77
2021/07/14 10:07:30;;;;;;;;;8.50;6.75;;;;;18.25;93.46;100872.19;5074643;28;46556;-77
2021/07/14 10:09:57;;;;;;;;;8.00;6.50;;;;;18.27;92.91;100855.13;5012068;28;46943;-77
2021/07/14 10:12:39;;;;;;;;;5.75;5.75;;;;;18.31;93.18;100880.38;5012496;28;45651;-76
2021/07/14 10:15:13;;;;;;;;;6.75;6.75;;;;;18.35;93.47;100878.25;5012160;28;45950;-76
2021/07/14 10:17:46;;;;;;;;;6.00;5.75;;;;;18.31;93.24;100868.91;5012172;28;45660;-76
2021/07/14 10:20:21;;;;;;;;;5.75;5.00;;;;;18.41;93.03;100880.28;5011678;28;47161;-76
2021/07/14 10:22:54;;;;;;;;;5.50;5.50;;;;;18.37;93.44;100852.41;5011026;28;45577;-75
2021/07/14 10:25:20;;;;;;;;;6.50;6.50;;;;;18.46;92.81;100870.88;5009810;28;45774;-77
2021/07/14 10:27:47;;;;;;;;;6.25;6.00;;;;;18.49;92.85;100871.56;5012055;28;45707;-76
2021/07/14 10:30:14;;;;;;;;;7.00;6.75;;;;;18.53;93.18;100873.75;5012257;28;46094;-77
2021/07/14 10:32:42;;;;;;;;;7.00;6.75;;;;;18.52;93.23;100866.78;5012293;28;45667;-77
2021/07/14 10:35:14;;;;;;;;;6.50;6.50;;;;;18.59;93.12;100881.13;5012350;28;45766;-77
2021/07/14 10:37:54;;;;;;;;;6.50;6.00;;;;;18.65;93.12;100874.38;5011868;28;45809;-77
2021/07/14 10:40:22;;;;;;;;;6.25;6.25;;;;;18.66;92.94;100873.41;5011997;28;46263;-76
2021/07/14 10:42:49;;;;;;;;;6.00;6.00;;;;;18.72;92.89;100886.06;5011914;28;45602;-77
2021/07/14 10:45:15;;;;;;;;;5.75;5.00;;;;;18.68;92.55;100874.06;5012160;28;45970;-76
2021/07/14 10:47:41;;;;;;;;;5.75;5.75;;;;;18.77;92.81;100903.19;5065201;28;46671;-77
2021/07/14 10:50:08;;;;;;;;;5.75;5.75;;;;;18.80;92.95;100905.53;5074143;28;45643;-77
2021/07/14 10:52:34;;;;;;;;;6.50;6.00;;;;;18.83;92.74;100896.44;5074248;28;45663;-74
2021/07/14 10:55:02;;;;;;;;;6.50;5.75;;;;;18.85;93.33;100892.59;5074118;28;45857;-77
2021/07/14 10:57:27;;;;;;;;;5.00;5.00;;;;;18.82;92.44;100887.63;5073565;28;46570;-78
2021/07/14 10:59:54;;;;;;;;;7.25;6.50;;;;;18.89;92.93;100889.66;5074030;28;46577;-77
2021/07/14 11:02:38;;;;;;;;;7.00;6.25;;;;;18.88;92.74;100874.72;5073962;28;45640;-77
2021/07/14 11:05:04;;;;;;;;;6.25;5.75;;;;;19.02;93.19;100888.25;5074233;28;45801;-75
2021/07/14 11:07:37;;;;;;;;;6.00;6.00;;;;;19.06;92.64;100894.91;5073863;28;45718;-77
2021/07/14 11:10:22;;;;;;;;;7.50;7.00;;;;;19.10;93.15;100904.25;5074213;28;46039;-78
2021/07/14 11:12:48;;;;;;;;;6.50;6.00;;;;;19.12;92.88;100877.50;5074107;28;45669;-78
2021/07/14 11:15:27;;;;;;;;;7.75;7.50;;;;;19.19;92.78;100890.00;5074150;28;45584;-78
2021/07/14 11:17:52;;;;;;;;;7.25;6.75;;;;;19.24;92.96;100890.38;5073856;28;45435;-78
2021/07/14 11:20:18;;;;;;;;;7.00;6.50;;;;;19.32;92.90;100899.38;5073659;28;46001;-77
2021/07/14 11:22:45;;;;;;;;;9.50;7.25;;;;;19.39;92.58;100895.06;5073956;28;45595;-76
2021/07/14 11:25:30;;;;;;;;;9.25;8.75;;;;;19.45;92.92;100905.94;5073995;28;45716;-78
2021/07/14 11:28:06;;;;;;;;;7.75;6.75;;;;;19.52;92.79;100890.19;5074116;28;46501;-78
2021/07/14 11:30:39;;;;;;;;;8.75;8.25;;;;;19.57;92.76;100890.56;5073847;28;46622;-77
2021/07/14 11:33:05;;;;;;;;;7.00;6.50;;;;;19.64;92.55;100880.97;5073971;28;45740;-77
2021/07/14 11:35:38;;;;;;;;;9.00;9.00;;;;;19.76;92.55;100882.28;5073680;28;45819;-77
2021/07/14 11:38:04;;;;;;;;;6.75;6.25;;;;;19.82;92.49;100876.34;5076692;28;46457;-78
2021/07/14 11:40:41;;;;;;;;;8.50;8.25;;;;;19.98;92.68;100884.34;5058683;28;46260;-79
2021/07/14 11:43:11;;;;;;;;;8.00;8.00;;;;;20.09;92.49;100872.56;5077439;28;45716;-76
2021/07/14 11:45:38;;;;;;;;;6.00;5.75;;;;;20.07;92.33;100863.94;5077032;28;45711;-79
2021/07/14 11:48:11;;;;;;;;;7.75;7.50;;;;;20.26;92.74;100884.06;5076492;28;46879;-77
2021/07/14 11:50:45;;;;;;;;;7.75;7.50;;;;;20.36;92.67;100872.31;5076152;28;47407;-76
2021/07/14 11:53:32;;;;;;;;;8.25;8.25;;;;;20.43;92.61;100883.13;5078745;28;45694;-79
2021/07/14 11:56:12;;;;;;;;;8.00;8.00;;;;;20.47;92.54;100913.72;5082418;28;45550;-79
2021/07/14 11:58:53;;;;;;;;;8.50;8.00;;;;;20.49;92.76;100915.25;5081853;28;45740;-79
2021/07/14 12:01:18;;;;;;;;;7.75;7.50;;;;;20.49;92.62;100907.25;5081187;28;46153;-79
2021/07/14 12:04:02;;;;;;;;;8.25;7.75;;;;;20.52;92.64;100914.91;5081393;28;45606;-79
2021/07/14 12:06:53;;;;;;;;;8.75;8.75;;;;;20.54;92.66;100941.38;5081773;28;45481;-77
2021/07/14 12:09:18;;;;;;;;;7.00;7.00;;;;;20.56;92.38;100922.56;5077886;28;46347;-78
2021/07/14 12:11:43;;;;;;;;;7.75;7.50;;;;;20.61;92.37;100921.06;5076600;28;47246;-79
2021/07/14 12:14:34;;;;;;;;;10.00;9.50;;;;;20.64;92.50;100904.75;5076833;28;45588;-76
2021/07/14 12:16:59;;;;;;;;;9.00;8.50;;;;;20.68;92.27;100900.75;5076146;28;45464;-80
2021/07/14 12:19:30;;;;;;;;;8.25;8.25;;;;;20.71;92.39;100900.44;5076057;28;47248;-79